Time;durP1;ratioP1;P1;durP2;ratioP2;P2;SDS_P1;SDS_P2;PMS_P1;PMS_P2;Temp;Humidity;BMP_temperature;BMP_pressure;BME280_temperature;BME280_humidity;BME280_pressure;Samples;Min_cycle;Max_cycle;Signal;HPM_P1;HPM_P2
2021/10/29 00:01:22;;;;;;;;;;;;;;;5.13;59.08;99323.00;5018851;28;19921;-78
2021/10/29 00:03:48;;;;;;;;;;;;;;;5.24;58.85;99325.88;5051683;28;19920;-79
2021/10/29 00:06:14;;;;;;;;;;;;;;;5.20;58.67;99324.34;5052490;28;19920;-81
2021/10/29 00:08:41;;;;;;;;;;;;;;;5.24;58.61;99330.34;5035434;28;19921;-80
2021/10/29 00:11:07;;;;;;;;;;;;;;;5.27;58.71;99328.34;5019647;28;20010;-81
2021/10/29 00:13:32;;;;;;;;;;;;;;;5.29;58.81;99328.25;5037913;28;19963;-81
2021/10/29 00:15:59;;;;;;;;;;;;;;;5.24;58.94;99328.53;5039804;28;19922;-82
2021/10/29 00:18:25;;;;;;;;;;;;;;;5.26;58.83;99333.72;5039012;28;20015;-82
2021/10/29 00:20:51;;;;;;;;;;;;;;;5.21;59.22;99336.66;5019339;28;19932;-83
2021/10/29 00:23:17;;;;;;;;;;;;;;;5.24;59.07;99331.19;5020308;28;19921;-80
2021/10/29 00:25:43;;;;;;;;;;;;;;;5.23;59.09;99333.94;5053354;28;19971;-80
2021/10/29 00:28:08;;;;;;;;;;;;;;;5.17;59.32;99331.63;5053795;28;19921;-81
2021/10/29 00:30:35;;;;;;;;;;;;;;;5.14;59.25;99331.81;5019563;28;19920;-82
2021/10/29 00:33:00;;;;;;;;;;;;;;;5.16;59.34;99335.22;5035577;28;19920;-74
2021/10/29 00:35:26;;;;;;;;;;;;;;;5.13;59.52;99338.06;5053149;28;19931;-76
2021/10/29 00:37:52;;;;;;;;;;;;;;;5.21;59.27;99338.47;5034947;28;19955;-76
2021/10/29 00:40:19;;;;;;;;;;;;;;;5.22;59.48;99333.06;5052485;28;19921;-75
2021/10/29 00:42:45;;;;;;;;;;;;;;;5.20;59.43;99340.25;5052952;28;19935;-77
2021/10/29 00:45:10;;;;;;;;;;;;;;;5.18;59.34;99335.97;5020647;28;19920;-75
2021/10/29 00:47:36;;;;;;;;;;;;;;;5.07;59.85;99337.44;5019851;28;19920;-77
2021/10/29 00:50:03;;;;;;;;;;;;;;;5.04;59.98;99345.59;5051818;28;19920;-76
2021/10/29 00:52:29;;;;;;;;;;;;;;;4.98;60.25;99356.53;5018459;28;19920;-78
2021/10/29 00:54:55;;;;;;;;;;;;;;;4.99;60.33;99355.56;5051393;28;20398;-78
2021/10/29 00:57:21;;;;;;;;;;;;;;;5.02;60.25;99346.63;5018424;28;20006;-80
2021/10/29 00:59:48;;;;;;;;;;;;;;;5.01;60.34;99340.47;5036643;28;19990;-79
2021/10/29 01:02:14;;;;;;;;;;;;;;;5.03;60.19;99354.47;5022467;28;20300;-80
2021/10/29 01:04:40;;;;;;;;;;;;;;;4.97;60.31;99354.84;5021340;28;19927;-78
2021/10/29 01:07:08;;;;;;;;;;;;;;;4.94;60.35;99355.00;5022088;28;19927;-79
2021/10/29 01:09:34;;;;;;;;;;;;;;;4.97;60.27;99346.88;5022273;28;19920;-79
2021/10/29 01:12:01;;;;;;;;;;;;;;;5.01;60.13;99351.06;5038322;28;20394;-79
2021/10/29 01:14:28;;;;;;;;;;;;;;;4.98;60.30;99351.22;5022099;28;19956;-79
2021/10/29 01:16:54;;;;;;;;;;;;;;;4.95;60.41;99346.09;5039068;28;20405;-79
2021/10/29 01:19:20;;;;;;;;;;;;;;;4.97;60.16;99349.53;5023381;28;19920;-81
2021/10/29 01:21:46;;;;;;;;;;;;;;;4.95;60.33;99346.09;5034213;28;19928;-81
2021/10/29 01:24:12;;;;;;;;;;;;;;;5.04;60.02;99366.78;5018721;28;20365;-80
2021/10/29 01:26:38;;;;;;;;;;;;;;;5.06;60.18;99364.88;5036331;28;19920;-78
2021/10/29 01:29:03;;;;;;;;;;;;;;;5.00;60.14;99378.50;5068808;28;19942;-80
2021/10/29 01:31:29;;;;;;;;;;;;;;;4.99;60.28;99374.13;5043512;28;20007;-79
2021/10/29 01:33:55;;;;;;;;;;;;;;;5.04;60.25;99382.69;5006278;28;20375;-80
2021/10/29 01:36:21;;;;;;;;;;;;;;;5.09;60.04;99374.47;5021759;28;20375;-78
2021/10/29 01:38:50;;;;;;;;;;;;;;;5.11;60.04;99386.69;5022904;28;20283;-78
2021/10/29 01:41:17;;;;;;;;;;;;;;;5.04;59.89;99393.28;5022316;28;19921;-80
2021/10/29 01:43:44;;;;;;;;;;;;;;;5.22;59.67;99390.50;5022289;28;19924;-81
2021/10/29 01:46:10;;;;;;;;;;;;;;;5.20;59.79;99387.09;5021485;28;19920;-80
2021/10/29 01:48:45;;;;;;;;;;;;;;;5.27;59.50;99393.78;5038562;28;19924;-80
2021/10/29 01:51:11;;;;;;;;;;;;;;;5.29;59.42;99397.16;5020862;28;19920;-80
2021/10/29 01:53:37;;;;;;;;;;;;;;;5.28;59.66;99392.81;5021405;28;20444;-80
2021/10/29 01:56:03;;;;;;;;;;;;;;;5.32;59.56;99394.34;5021242;28;19950;-79
2021/10/29 01:58:29;;;;;;;;;;;;;;;5.35;59.60;99402.97;5021260;28;19921;-80
2021/10/29 02:00:56;;;;;;;;;;;;;;;5.38;59.40;99401.06;5021234;28;20288;-79
2021/10/29 02:03:22;;;;;;;;;;;;;;;5.39;59.61;99397.50;5020810;28;19921;-80
2021/10/29 02:05:47;;;;;;;;;;;;;;;5.35;59.45;99412.72;5037161;28;19927;-79
2021/10/29 02:08:13;;;;;;;;;;;;;;;5.34;59.67;99411.00;5037157;28;20414;-80
2021/10/29 02:10:39;;;;;;;;;;;;;;;5.34;60.00;99417.19;5036449;28;19920;-81
2021/10/29 02:13:05;;;;;;;;;;;;;;;5.41;59.88;99408.84;5037357;28;19924;-78
2021/10/29 02:15:31;;;;;;;;;;;;;;;5.43;59.70;99410.47;5044480;28;20023;-81
2021/10/29 02:17:58;;;;;;;;;;;;;;;5.39;59.83;99408.09;5020457;28;19977;-80
2021/10/29 02:20:24;;;;;;;;;;;;;;;5.39;59.93;99419.56;5020905;28;19921;-81
2021/10/29 02:22:50;;;;;;;;;;;;;;;5.34;59.76;99422.47;5037105;28;19952;-81
2021/10/29 02:25:16;;;;;;;;;;;;;;;5.22;60.75;99417.00;5020380;28;19974;-84
2021/10/29 02:27:41;;;;;;;;;;;;;;;5.21;60.46;99425.91;5037413;28;19966;-79
2021/10/29 02:30:07;;;;;;;;;;;;;;;5.25;60.81;99424.78;5036598;28;20302;-79
2021/10/29 02:32:33;;;;;;;;;;;;;;;5.21;60.53;99436.50;5036508;28;20395;-79
2021/10/29 02:34:59;;;;;;;;;;;;;;;5.22;60.36;99432.91;5036607;28;19924;-77
2021/10/29 02:37:25;;;;;;;;;;;;;;;5.21;60.81;99441.81;5036665;28;20043;-79
2021/10/29 02:39:52;;;;;;;;;;;;;;;5.23;60.74;99443.44;5037677;28;20308;-79
2021/10/29 02:42:18;;;;;;;;;;;;;;;5.25;60.94;99446.00;5052956;28;19920;-78
2021/10/29 02:44:44;;;;;;;;;;;;;;;5.24;60.75;99446.94;5052730;28;19920;-79
2021/10/29 02:47:11;;;;;;;;;;;;;;;5.26;60.97;99450.34;5036173;28;20291;-80
2021/10/29 02:49:37;;;;;;;;;;;;;;;5.29;60.83;99466.06;5036072;28;19921;-80
2021/10/29 02:52:04;;;;;;;;;;;;;;;5.19;60.81;99465.75;5035486;28;19920;-80
2021/10/29 02:54:30;;;;;;;;;;;;;;;5.03;61.34;99471.03;5035765;28;20031;-80
2021/10/29 02:56:56;;;;;;;;;;;;;;;5.02;61.25;99469.31;5035439;28;20135;-81
2021/10/29 02:59:21;;;;;;;;;;;;;;;5.02;61.70;99474.63;5035671;28;19921;-80
2021/10/29 03:01:47;;;;;;;;;;;;;;;4.99;61.59;99474.78;5035551;28;20019;-79
2021/10/29 03:04:13;;;;;;;;;;;;;;;4.96;61.88;99477.59;5035640;28;20275;-81
2021/10/29 03:06:39;;;;;;;;;;;;;;;4.98;62.06;99472.25;5035509;28;19920;-78
2021/10/29 03:09:05;;;;;;;;;;;;;;;5.03;62.02;99481.63;5035631;28;20417;-80
2021/10/29 03:11:31;;;;;;;;;;;;;;;5.09;61.87;99486.59;5052807;28;20406;-79
2021/10/29 03:13:57;;;;;;;;;;;;;;;5.05;62.08;99485.06;5052012;28;19920;-80
2021/10/29 03:16:23;;;;;;;;;;;;;;;5.13;61.99;99484.63;5035482;28;20023;-80
2021/10/29 03:18:49;;;;;;;;;;;;;;;5.11;62.06;99483.84;5035683;28;19970;-80
2021/10/29 03:21:15;;;;;;;;;;;;;;;5.16;62.08;99488.91;5035024;28;20032;-80
2021/10/29 03:23:42;;;;;;;;;;;;;;;5.15;62.01;99496.00;5035565;28;20039;-78
2021/10/29 03:26:08;;;;;;;;;;;;;;;5.04;62.52;99488.66;5052208;28;19927;-78
2021/10/29 03:28:35;;;;;;;;;;;;;;;5.11;62.52;99490.03;5051895;28;20272;-79
2021/10/29 03:31:01;;;;;;;;;;;;;;;5.17;62.56;99498.56;5019202;28;19928;-81
2021/10/29 03:33:35;;;;;;;;;;;;;;;5.22;62.26;99501.81;5035407;28;19920;-87
2021/10/29 03:36:01;;;;;;;;;;;;;;;5.22;62.53;99501.81;5068915;28;19929;-81
2021/10/29 03:41:10;;;;;;;;;;;;;;;5.34;62.16;99496.69;5052380;28;20392;-79
2021/10/29 03:43:48;;;;;;;;;;;;;;;5.40;61.94;99500.78;5035778;28;19924;-84
2021/10/29 03:46:33;;;;;;;;;;;;;;;5.38;62.21;99508.00;5054211;28;19928;-81
2021/10/29 03:51:32;;;;;;;;;;;;;;;5.47;62.52;99515.41;5034945;28;19967;-82
2021/10/29 03:54:04;;;;;;;;;;;;;;;5.72;63.94;99516.69;5036680;28;19920;-81
2021/10/29 03:56:30;;;;;;;;;;;;;;;6.45;65.04;99523.00;5019050;28;19921;-80
2021/10/29 03:58:56;;;;;;;;;;;;;;;6.43;61.02;99519.59;5035246;28;19928;-81
2021/10/29 04:01:22;;;;;;;;;;;;;;;6.29;60.45;99516.91;5053370;28;20509;-82
2021/10/29 04:03:48;;;;;;;;;;;;;;;6.17;60.46;99520.25;5036083;28;19966;-79
2021/10/29 04:06:15;;;;;;;;;;;;;;;6.05;60.76;99524.50;5035805;28;19920;-80
2021/10/29 04:08:41;;;;;;;;;;;;;;;5.95;60.98;99529.50;5051844;28;20013;-80
2021/10/29 04:11:07;;;;;;;;;;;;;;;5.89;61.40;99521.84;5051707;28;20011;-79
2021/10/29 04:13:34;;;;;;;;;;;;;;;5.62;62.02;99515.50;5035094;28;19921;-80
2021/10/29 04:16:01;;;;;;;;;;;;;;;5.69;62.20;99532.75;5035620;28;19928;-79
2021/10/29 04:18:26;;;;;;;;;;;;;;;5.71;62.36;99530.88;5034864;28;19944;-80
2021/10/29 04:20:52;;;;;;;;;;;;;;;5.55;62.73;99534.38;5018706;28;20381;-78
2021/10/29 04:23:19;;;;;;;;;;;;;;;5.46;63.34;99537.56;5035524;28;19921;-79
2021/10/29 04:25:44;;;;;;;;;;;;;;;5.46;65.59;99537.56;5035487;28;19920;-78
2021/10/29 04:28:12;;;;;;;;;;;;;;;6.21;69.08;99543.06;5052938;28;19921;-77
2021/10/29 04:30:38;;;;;;;;;;;;;;;6.90;70.50;99546.84;5036646;28;20299;-78
2021/10/29 04:33:07;;;;;;;;;;;;;;;7.74;67.91;99546.81;5035528;28;20288;-78
2021/10/29 04:35:33;;;;;;;;;;;;;;;8.27;63.97;99545.06;5021693;28;20395;-75
2021/10/29 04:37:59;;;;;;;;;;;;;;;8.72;63.03;99550.91;5056613;28;19924;-76
2021/10/29 04:40:25;;;;;;;;;;;;;;;8.57;59.92;99546.66;5038567;28;19974;-77
2021/10/29 04:42:51;;;;;;;;;;;;;;;8.89;61.14;99560.44;5022743;28;19920;-77
2021/10/29 04:45:18;;;;;;;;;;;;;;;9.23;60.03;99553.56;5038189;28;20035;-78
2021/10/29 04:47:44;;;;;;;;;;;;;;;9.58;58.60;99563.53;5038509;28;19928;-78
2021/10/29 04:50:10;;;;;;;;;;;;;;;10.06;57.44;99559.06;5038386;28;19920;-77
2021/10/29 04:52:36;;;;;;;;;;;;;;;10.11;55.71;99564.91;5054948;28;20058;-77
2021/10/29 04:55:01;;;;;;;;;;;;;;;9.85;54.06;99563.31;5038253;28;19964;-77
2021/10/29 04:57:28;;;;;;;;;;;;;;;9.27;54.01;99568.41;5038417;28;19973;-80
2021/10/29 04:59:54;;;;;;;;;;;;;;;8.89;54.74;99568.44;5038178;28;19920;-80
2021/10/29 05:02:20;;;;;;;;;;;;;;;8.42;55.71;99573.38;5054684;28;19928;-80
2021/10/29 05:04:46;;;;;;;;;;;;;;;7.84;57.34;99579.88;5038005;28;19921;-82
2021/10/29 05:07:12;;;;;;;;;;;;;;;7.51;58.29;99581.06;5037737;28;20350;-78
2021/10/29 05:09:37;;;;;;;;;;;;;;;7.28;58.98;99582.53;5054336;28;20007;-79
2021/10/29 05:12:03;;;;;;;;;;;;;;;7.14;59.52;99590.50;5037507;28;19920;-79
2021/10/29 05:14:29;;;;;;;;;;;;;;;6.87;60.46;99595.72;5038263;28;19921;-79
2021/10/29 05:16:55;;;;;;;;;;;;;;;6.45;62.39;99607.97;5021193;28;19994;-80
2021/10/29 05:19:21;;;;;;;;;;;;;;;6.47;61.96;99611.41;5021262;28;19920;-80
2021/10/29 05:21:47;;;;;;;;;;;;;;;6.43;62.61;99612.53;5037857;28;20323;-79
2021/10/29 05:24:14;;;;;;;;;;;;;;;6.33;63.17;99624.63;5055179;28;20413;-80
2021/10/29 05:26:40;;;;;;;;;;;;;;;6.39;63.16;99624.25;5054178;28;20383;-81
2021/10/29 05:29:06;;;;;;;;;;;;;;;6.29;63.46;99634.56;5054609;28;19964;-78
2021/10/29 05:31:32;;;;;;;;;;;;;;;6.19;64.09;99632.53;5039297;28;19920;-80
2021/10/29 05:33:58;;;;;;;;;;;;;;;6.19;63.80;99627.22;5037176;28;19924;-79
2021/10/29 05:36:24;;;;;;;;;;;;;;;6.14;63.84;99640.75;5035562;28;20280;-81
2021/10/29 05:38:50;;;;;;;;;;;;;;;6.05;64.37;99647.41;5035903;28;20380;-80
2021/10/29 05:41:16;;;;;;;;;;;;;;;6.00;64.57;99646.84;5036327;28;19970;-80
2021/10/29 05:43:42;;;;;;;;;;;;;;;5.99;64.53;99647.78;5036633;28;19943;-80
2021/10/29 05:46:08;;;;;;;;;;;;;;;5.97;64.39;99654.97;5052649;28;19953;-81
2021/10/29 05:48:37;;;;;;;;;;;;;;;5.88;64.94;99665.22;5053148;28;19921;-81
2021/10/29 05:51:09;;;;;;;;;;;;;;;5.91;65.24;99665.91;5054867;28;19920;-83
2021/10/29 05:56:05;;;;;;;;;;;;;;;5.99;64.56;99663.72;5053597;28;20355;-80
2021/10/29 05:58:32;;;;;;;;;;;;;;;5.88;65.31;99660.75;5037183;28;19928;-81
2021/10/29 06:00:58;;;;;;;;;;;;;;;5.88;64.59;99666.06;5037071;28;19974;-80
2021/10/29 06:03:23;;;;;;;;;;;;;;;5.90;65.06;99669.47;5053495;28;20379;-80
2021/10/29 06:05:49;;;;;;;;;;;;;;;5.92;65.25;99670.28;5036955;28;20019;-81
2021/10/29 06:08:15;;;;;;;;;;;;;;;5.95;65.01;99680.75;5036812;28;19927;-80
2021/10/29 06:10:41;;;;;;;;;;;;;;;5.88;65.38;99676.69;5053703;28;19921;-79
2021/10/29 06:13:07;;;;;;;;;;;;;;;5.84;65.68;99685.75;5053254;28;19927;-79
2021/10/29 06:15:35;;;;;;;;;;;;;;;5.91;65.51;99673.88;5020085;28;19920;-80
2021/10/29 06:18:01;;;;;;;;;;;;;;;5.94;65.75;99680.81;5053564;28;19974;-80
2021/10/29 06:20:28;;;;;;;;;;;;;;;5.97;65.45;99686.81;5019863;28;19921;-80
2021/10/29 06:22:55;;;;;;;;;;;;;;;6.07;65.17;99687.16;5053018;28;19967;-79
2021/10/29 06:25:25;;;;;;;;;;;;;;;6.05;65.24;99686.38;5053273;28;20387;-81
2021/10/29 06:30:54;;;;;;;;;;;;;;;5.87;65.60;99698.84;5039822;28;19931;-79
2021/10/29 06:33:22;;;;;;;;;;;;;;;5.95;65.70;99696.66;5036992;28;19920;-81
2021/10/29 06:35:48;;;;;;;;;;;;;;;5.94;65.63;99708.22;5037382;28;20414;-80
2021/10/29 06:38:15;;;;;;;;;;;;;;;5.92;66.06;99715.41;5036121;28;19921;-79
2021/10/29 06:40:43;;;;;;;;;;;;;;;5.92;65.99;99715.41;5053026;28;19927;-79
2021/10/29 06:43:15;;;;;;;;;;;;;;;5.80;66.28;99722.19;5036214;28;19920;-79
2021/10/29 06:48:48;;;;;;;;;;;;;;;5.60;67.33;99728.59;5052658;28;19921;-81
2021/10/29 07:02:08;;;;;;;;;;;;;;;5.31;68.93;99730.13;5052921;28;20379;-81
2021/10/29 07:04:55;;;;;;;;;;;;;;;5.44;68.35;99732.13;5036549;28;19988;-81
2021/10/29 07:40:17;;;;;;;;;;;;;;;5.63;69.00;99763.81;5055534;28;20333;-79
2021/10/29 07:42:55;;;;;;;;;;;;;;;5.66;69.13;99767.16;5052464;28;19920;-80
2021/10/29 07:45:21;;;;;;;;;;;;;;;5.66;68.73;99779.59;5036560;28;19928;-80
2021/10/29 07:47:55;;;;;;;;;;;;;;;5.60;69.23;99778.97;5051791;28;19921;-79
2021/10/29 07:50:24;;;;;;;;;;;;;;;5.73;68.97;99783.63;5035610;28;20469;-80
2021/10/29 07:52:51;;;;;;;;;;;;;;;5.70;68.95;99783.78;5051526;28;20273;-79
2021/10/29 07:55:19;;;;;;;;;;;;;;;5.58;68.95;99790.59;5034837;28;19927;-80
2021/10/29 07:57:48;;;;;;;;;;;;;;;5.59;69.61;99798.47;5034920;28;19920;-78
2021/10/29 08:00:15;;;;;;;;;;;;;;;5.53;69.56;99790.84;5051882;28;19920;-81
2021/10/29 08:02:41;;;;;;;;;;;;;;;5.50;69.95;99798.94;5034723;28;19921;-80
2021/10/29 08:05:07;;;;;;;;;;;;;;;5.44;70.05;99793.09;5051634;28;19931;-81
2021/10/29 08:07:33;;;;;;;;;;;;;;;5.28;70.28;99801.84;4997602;28;20316;-79
2021/10/29 08:10:04;;;;;;;;;;;;;;;5.16;71.09;99806.91;5018263;28;19971;-80
2021/10/29 08:12:30;;;;;;;;;;;;;;;5.12;71.09;99803.56;5002389;28;20376;-80
2021/10/29 08:14:57;;;;;;;;;;;;;;;5.24;70.78;99796.78;5001794;28;19925;-81
2021/10/29 08:17:23;;;;;;;;;;;;;;;5.22;71.00;99815.41;5001468;28;19920;-81
2021/10/29 08:19:56;;;;;;;;;;;;;;;5.15;70.99;99823.72;5001934;28;19924;-81
2021/10/29 08:22:22;;;;;;;;;;;;;;;4.99;71.58;99828.94;5002420;28;19925;-79
2021/10/29 08:24:48;;;;;;;;;;;;;;;4.87;71.93;99841.00;5017986;28;19991;-80
2021/10/29 08:27:14;;;;;;;;;;;;;;;4.81;72.21;99836.00;5018219;28;20474;-80
2021/10/29 08:29:40;;;;;;;;;;;;;;;4.80;72.20;99836.94;5001583;28;19927;-80
2021/10/29 08:32:09;;;;;;;;;;;;;;;4.80;72.38;99835.13;5001620;28;19925;-80
2021/10/29 08:34:35;;;;;;;;;;;;;;;4.81;72.63;99841.28;5002054;28;19965;-82
2021/10/29 08:37:02;;;;;;;;;;;;;;;4.73;72.29;99851.41;5001715;28;20016;-81
2021/10/29 08:39:28;;;;;;;;;;;;;;;4.69;72.98;99850.69;5001844;28;19927;-81
2021/10/29 08:41:55;;;;;;;;;;;;;;;4.66;73.35;99857.91;5018959;28;19944;-82
2021/10/29 08:44:21;;;;;;;;;;;;;;;4.70;73.39;99859.47;5007668;28;19963;-82
2021/10/29 08:46:48;;;;;;;;;;;;;;;4.80;73.02;99858.97;5038295;28;19959;-80
2021/10/29 08:49:16;;;;;;;;;;;;;;;4.77;73.04;99856.47;5038382;28;19921;-80
2021/10/29 08:51:42;;;;;;;;;;;;;;;4.89;72.67;99870.94;5054595;28;19921;-79
2021/10/29 08:54:08;;;;;;;;;;;;;;;5.09;72.48;99868.16;5021243;28;20024;-81
2021/10/29 08:56:35;;;;;;;;;;;;;;;5.23;71.71;99869.28;5042160;28;19975;-81
2021/10/29 08:59:13;;;;;;;;;;;;;;;5.24;71.32;99881.59;5034261;28;19929;-80
2021/10/29 09:04:49;;;;;;;;;;;;;;;5.24;70.30;99878.94;5042874;28;19920;-80
2021/10/29 09:32:18;;;;;;;;;;;;;;;4.61;69.89;99924.34;5024342;28;20023;-81
2021/10/29 09:34:57;;;;;;;;;;;;;;;4.66;69.84;99937.34;5048008;28;20339;-82
2021/10/29 09:37:24;;;;;;;;;;;;;;;4.78;69.71;99937.66;5057994;28;19920;-84
2021/10/29 09:39:58;;;;;;;;;;;;;;;4.70;69.08;99938.94;5039613;28;19920;-83
2021/10/29 09:42:33;;;;;;;;;;;;;;;4.61;69.27;99954.31;5054421;28;19921;-81
2021/10/29 09:45:00;;;;;;;;;;;;;;;4.47;69.45;99951.44;5037425;28;19921;-83
2021/10/29 09:47:29;;;;;;;;;;;;;;;4.52;69.78;99949.44;5037188;28;20441;-82
2021/10/29 09:50:13;;;;;;;;;;;;;;;4.60;69.67;99954.41;5037721;28;19927;-82
2021/10/29 09:55:19;;;;;;;;;;;;;;;4.45;70.02;99976.28;5040638;28;19920;-80
2021/10/29 09:57:45;;;;;;;;;;;;;;;4.50;69.97;99980.41;5039422;28;19920;-82
2021/10/29 10:00:12;;;;;;;;;;;;;;;4.50;69.88;99990.16;5054534;28;19926;-81
2021/10/29 10:02:42;;;;;;;;;;;;;;;4.42;70.17;99992.28;5037933;28;19921;-80
2021/10/29 10:05:08;;;;;;;;;;;;;;;4.24;70.23;99999.25;5050447;28;19928;-78
2021/10/29 10:07:34;;;;;;;;;;;;;;;4.18;70.18;100004.81;5036286;28;20370;-82
2021/10/29 10:10:01;;;;;;;;;;;;;;;4.05;70.80;100005.31;5019997;28;19920;-82
2021/10/29 10:12:33;;;;;;;;;;;;;;;4.13;70.77;100013.78;5053232;28;19927;-82
2021/10/29 10:15:00;;;;;;;;;;;;;;;4.16;70.57;100011.94;5020304;28;19921;-83
2021/10/29 10:17:26;;;;;;;;;;;;;;;4.08;70.81;100010.47;5019857;28;20031;-80
2021/10/29 10:19:52;;;;;;;;;;;;;;;4.04;70.79;100019.47;5035556;28;20110;-84
2021/10/29 10:22:20;;;;;;;;;;;;;;;4.01;70.98;100026.69;5036611;28;19986;-81
2021/10/29 10:24:47;;;;;;;;;;;;;;;3.89;71.13;100026.28;5019796;28;19925;-82
2021/10/29 10:30:12;;;;;;;;;;;;;;;4.08;70.51;100021.06;5022170;28;19975;-81
2021/10/29 10:44:48;;;;;;;;;;;;;;;3.77;70.22;100052.38;5030654;28;19939;-81
2021/10/29 10:47:21;;;;;;;;;;;;;;;3.73;70.20;100053.44;5044165;28;20015;-79
2021/10/29 10:49:50;;;;;;;;;;;;;;;3.89;70.04;100057.16;5039834;28;19925;-81
2021/10/29 10:52:40;;;;;;;;;;;;;;;3.92;70.04;100075.56;5021030;28;19928;-80
2021/10/29 10:55:10;;;;;;;;;;;;;;;3.95;69.59;100093.06;5029343;28;19924;-80
2021/10/29 10:57:48;;;;;;;;;;;;;;;3.92;70.05;100078.19;5054079;28;19921;-81
2021/10/29 11:00:19;;;;;;;;;;;;;;;3.79;70.11;100104.25;5020159;28;19921;-81
2021/10/29 11:03:10;;;;;;;;;;;;;;;3.81;69.79;100096.28;5053568;28;19929;-82
2021/10/29 11:11:00;;;;;;;;;;;;;;;3.60;70.03;100113.84;5042690;28;19921;-81
2021/10/29 11:13:46;;;;;;;;;;;;;;;3.70;69.55;100114.34;5019431;28;19925;-81
2021/10/29 11:16:17;;;;;;;;;;;;;;;3.68;69.02;100116.19;5052364;28;19943;-80
2021/10/29 11:18:54;;;;;;;;;;;;;;;3.72;68.89;100128.38;5015902;28;19921;-80
2021/10/29 11:21:36;;;;;;;;;;;;;;;3.57;68.87;100138.63;5016244;28;19928;-78
2021/10/29 11:24:09;;;;;;;;;;;;;;;3.60;68.83;100124.41;5037467;28;19921;-80
2021/10/29 11:26:39;;;;;;;;;;;;;;;3.47;68.84;100134.63;5052040;28;19924;-80
2021/10/29 11:29:05;;;;;;;;;;;;;;;3.58;68.12;100142.16;5052259;28;20285;-81
2021/10/29 11:31:51;;;;;;;;;;;;;;;3.38;68.10;100142.88;5016432;28;19921;-80
2021/10/29 11:34:18;;;;;;;;;;;;;;;3.26;68.52;100146.00;5018910;28;19975;-81
2021/10/29 11:36:47;;;;;;;;;;;;;;;3.31;68.58;100149.31;5052012;28;19924;-82
2021/10/29 11:39:13;;;;;;;;;;;;;;;3.23;68.65;100161.94;5052203;28;19920;-81
2021/10/29 11:41:41;;;;;;;;;;;;;;;3.23;68.78;100169.88;5035424;28;19921;-81
2021/10/29 11:44:08;;;;;;;;;;;;;;;3.05;69.22;100174.06;5049307;28;19928;-82
2021/10/29 11:46:34;;;;;;;;;;;;;;;2.97;69.18;100171.72;5018945;28;20364;-82
2021/10/29 11:49:03;;;;;;;;;;;;;;;2.94;68.91;100187.66;5051941;28;20380;-81
2021/10/29 11:51:30;;;;;;;;;;;;;;;2.91;69.16;100183.34;5018733;28;19947;-81
2021/10/29 11:54:04;;;;;;;;;;;;;;;2.86;69.11;100180.00;5018785;28;20015;-81
2021/10/29 11:59:56;;;;;;;;;;;;;;;2.87;68.50;100188.78;5027284;28;19920;-81
2021/10/29 12:07:37;;;;;;;;;;;;;;;2.80;68.59;100189.91;5018703;28;20376;-83
2021/10/29 12:10:05;;;;;;;;;;;;;;;2.74;68.44;100200.66;5031837;28;20422;-82
2021/10/29 12:12:35;;;;;;;;;;;;;;;2.66;68.70;100198.28;5015219;28;19921;-81
2021/10/29 12:15:29;;;;;;;;;;;;;;;2.48;68.83;100215.59;5031259;28;20023;-81
2021/10/29 12:18:13;;;;;;;;;;;;;;;2.47;68.82;100205.97;5031508;28;19928;-80
2021/10/29 12:20:43;;;;;;;;;;;;;;;2.48;68.56;100209.47;5044910;28;19921;-81
2021/10/29 12:23:25;;;;;;;;;;;;;;;2.32;68.75;100217.03;5019249;28;19928;-80
2021/10/29 13:04:01;;;;;;;;;;;;;;;1.33;67.21;100278.84;5017499;28;20348;-81
2021/10/29 13:06:42;;;;;;;;;;;;;;;1.33;67.22;100284.97;5054565;28;20295;-82
2021/10/29 13:09:15;;;;;;;;;;;;;;;1.35;67.36;100287.56;5021714;28;19921;-79
2021/10/29 13:11:50;;;;;;;;;;;;;;;1.29;67.41;100304.41;5021223;28;19921;-80
2021/10/29 13:14:26;;;;;;;;;;;;;;;1.23;67.14;100298.44;5022200;28;19943;-80
2021/10/29 13:16:53;;;;;;;;;;;;;;;1.17;67.59;100300.34;5037224;28;19960;-81
2021/10/29 13:19:30;;;;;;;;;;;;;;;1.16;67.57;100309.13;5020182;28;19927;-80
2021/10/29 13:25:12;;;;;;;;;;;;;;;1.05;67.80;100319.06;5040582;28;19932;-81
2021/10/29 13:36:06;;;;;;;;;;;;;;;1.03;67.99;100314.75;5053096;28;19933;-80
2021/10/29 14:36:38;;;;;;;;;;;;;;;;;;;;;
2021/10/29 14:44:50;;;;;;;;;;;;;;;;;;;;;
2021/10/29 15:17:46;;;;;;;;;;;;;;;0.18;67.07;100414.03;4921552;28;19929;-80
2021/10/29 15:26:48;;;;;;;;;;;;;;;0.22;66.20;100423.56;4995063;28;19928;-82
2021/10/29 15:46:04;;;;;;;;;;;;;;;0.11;63.94;100428.19;4984765;28;19922;-81
2021/10/29 15:48:43;;;;;;;;;;;;;;;0.11;63.57;100430.81;4988475;28;20065;-80
2021/10/29 15:51:12;;;;;;;;;;;;;;;0.03;63.67;100432.72;5004635;28;19980;-79
2021/10/29 15:53:41;;;;;;;;;;;;;;;-0.01;63.46;100441.56;4988577;28;19921;-79
2021/10/29 15:56:36;;;;;;;;;;;;;;;-0.03;63.46;100448.66;5007038;28;19922;-79
2021/10/29 16:18:02;;;;;;;;;;;;;;;-0.11;62.42;100429.53;4902148;29;19922;-80
2021/10/29 16:20:29;;;;;;;;;;;;;;;-0.27;61.83;100432.41;4915099;29;19945;-78
2021/10/29 16:22:57;;;;;;;;;;;;;;;-0.33;61.84;100432.53;4899415;29;19930;-78
2021/10/29 16:25:35;;;;;;;;;;;;;;;-0.27;61.93;100442.94;4883982;29;19923;-76
2021/10/29 16:28:05;;;;;;;;;;;;;;;-0.37;61.37;100451.88;4901095;29;19931;-76
2021/10/29 16:30:32;;;;;;;;;;;;;;;-0.37;61.35;100449.25;4957131;28;20352;-78
2021/10/29 16:35:29;;;;;;;;;;;;;;;-0.35;61.68;100457.97;4999513;28;20564;-79
2021/10/29 16:37:56;;;;;;;;;;;;;;;-0.37;61.55;100459.78;5014645;28;20011;-78
2021/10/29 16:41:10;;;;;;;;;;;;;;;-0.45;60.84;100461.66;5021551;28;20292;-79
2021/10/29 16:43:42;;;;;;;;;;;;;;;-0.45;61.36;100461.66;5042147;28;19931;-80
2021/10/29 16:46:08;;;;;;;;;;;;;;;-0.48;60.79;100466.97;5039536;28;20418;-80
2021/10/29 16:48:41;;;;;;;;;;;;;;;-0.57;60.73;100461.84;5021969;28;19920;-81
2021/10/29 16:51:18;;;;;;;;;;;;;;;-0.53;60.78;100463.53;5006372;28;19920;-82
2021/10/29 16:53:46;;;;;;;;;;;;;;;-0.53;60.77;100471.41;5005819;28;19924;-76
2021/10/29 16:56:13;;;;;;;;;;;;;;;-0.51;60.57;100469.63;5038241;28;19920;-77
2021/10/29 16:58:39;;;;;;;;;;;;;;;-0.57;60.46;100467.97;5022468;28;20772;-77
2021/10/29 17:01:06;;;;;;;;;;;;;;;-0.56;60.34;100484.63;5005076;28;19967;-80
2021/10/29 17:03:33;;;;;;;;;;;;;;;-0.58;60.28;100481.13;5005320;28;19924;-79
2021/10/29 17:06:24;;;;;;;;;;;;;;;-0.66;60.00;100483.03;5014261;28;19921;-79
2021/10/29 17:08:51;;;;;;;;;;;;;;;-0.59;60.52;100490.78;4998654;28;19921;-80
2021/10/29 17:11:24;;;;;;;;;;;;;;;-0.62;60.14;100490.81;4984103;28;19966;-78
2021/10/29 17:13:54;;;;;;;;;;;;;;;-0.66;59.91;100496.16;4982257;28;19928;-80
2021/10/29 17:16:39;;;;;;;;;;;;;;;-0.68;60.34;100484.78;4991391;28;20017;-80
2021/10/29 17:19:05;;;;;;;;;;;;;;;-0.65;60.11;100485.59;4940142;28;20045;-80
2021/10/29 17:21:40;;;;;;;;;;;;;;;-0.62;60.42;100492.59;4955834;28;20308;-79
2021/10/29 17:24:07;;;;;;;;;;;;;;;-0.66;59.88;100501.41;4925665;28;19965;-79
2021/10/29 17:26:54;;;;;;;;;;;;;;;-0.65;59.98;100505.75;4963234;28;19921;-81
2021/10/29 17:29:21;;;;;;;;;;;;;;;-0.69;59.65;100504.94;4978869;28;19932;-78
2021/10/29 17:31:50;;;;;;;;;;;;;;;-0.68;59.33;100511.91;4978746;28;19922;-80
2021/10/29 17:34:19;;;;;;;;;;;;;;;-0.79;59.26;100514.72;4977602;28;20067;-80
2021/10/29 17:36:49;;;;;;;;;;;;;;;-0.90;59.17;100515.75;4959662;28;20328;-79
2021/10/29 17:39:20;;;;;;;;;;;;;;;-0.93;59.31;100502.69;4942999;28;19925;-79
2021/10/29 17:41:48;;;;;;;;;;;;;;;-0.89;59.46;100507.00;4991083;28;20101;-80
2021/10/29 17:44:17;;;;;;;;;;;;;;;-0.87;59.43;100506.06;4959058;28;19929;-80
2021/10/29 17:46:42;;;;;;;;;;;;;;;-0.86;59.36;100510.47;4978573;28;19931;-79
2021/10/29 17:49:11;;;;;;;;;;;;;;;-0.87;59.38;100513.94;4997884;28;20441;-78
2021/10/29 17:51:38;;;;;;;;;;;;;;;-0.87;59.52;100507.84;4981837;28;19967;-79
2021/10/29 17:54:07;;;;;;;;;;;;;;;-0.90;59.32;100508.78;4982260;28;19925;-80
2021/10/29 17:56:34;;;;;;;;;;;;;;;-0.91;59.60;100522.75;5010674;28;19959;-82
2021/10/29 17:59:24;;;;;;;;;;;;;;;-0.92;59.56;100525.41;5025428;28;19942;-79
2021/10/29 18:01:53;;;;;;;;;;;;;;;-0.87;59.54;100507.84;5038027;28;19928;-84
2021/10/29 18:04:30;;;;;;;;;;;;;;;-0.86;59.71;100518.34;5014200;28;20028;-80
2021/10/29 18:06:59;;;;;;;;;;;;;;;-0.85;59.39;100520.06;4998587;28;19975;-77
2021/10/29 18:09:24;;;;;;;;;;;;;;;-0.86;59.44;100517.47;4981515;28;20335;-77